sensor_id;sensor_type;location;lat;lon;timestamp;P1;durP1;ratioP1;P2;durP2;ratioP2
1839;SDS011;920;48.944;9.148;2023-03-19T00:02:22;9.10;;;7.47;;
1839;SDS011;920;48.944;9.148;2023-03-19T00:04:49;9.07;;;7.83;;
1839;SDS011;920;48.944;9.148;2023-03-19T00:07:16;8.83;;;7.57;;
1839;SDS011;920;48.944;9.148;2023-03-19T00:09:42;9.57;;;7.80;;
1839;SDS011;920;48.944;9.148;2023-03-19T00:12:09;9.77;;;7.60;;
1839;SDS011;920;48.944;9.148;2023-03-19T00:14:36;8.30;;;7.17;;
1839;SDS011;920;48.944;9.148;2023-03-19T00:17:03;9.13;;;6.50;;
1839;SDS011;920;48.944;9.148;2023-03-19T00:19:32;8.47;;;7.00;;
1839;SDS011;920;48.944;9.148;2023-03-19T00:21:59;7.63;;;6.83;;
1839;SDS011;920;48.944;9.148;2023-03-19T00:24:26;8.30;;;6.73;;
1839;SDS011;920;48.944;9.148;2023-03-19T00:26:53;10.30;;;7.70;;
1839;SDS011;920;48.944;9.148;2023-03-19T00:29:20;9.60;;;7.27;;
1839;SDS011;920;48.944;9.148;2023-03-19T00:31:47;8.43;;;7.50;;
1839;SDS011;920;48.944;9.148;2023-03-19T00:34:14;10.70;;;7.30;;
1839;SDS011;920;48.944;9.148;2023-03-19T00:36:44;10.37;;;8.40;;
1839;SDS011;920;48.944;9.148;2023-03-19T00:39:11;10.23;;;8.90;;
1839;SDS011;920;48.944;9.148;2023-03-19T00:41:38;9.07;;;7.93;;
1839;SDS011;920;48.944;9.148;2023-03-19T00:44:04;8.40;;;6.90;;
1839;SDS011;920;48.944;9.148;2023-03-19T00:46:32;12.43;;;7.00;;
1839;SDS011;920;48.944;9.148;2023-03-19T00:48:59;9.43;;;7.60;;
1839;SDS011;920;48.944;9.148;2023-03-19T00:51:25;8.70;;;7.80;;
1839;SDS011;920;48.944;9.148;2023-03-19T00:53:54;7.20;;;6.50;;
1839;SDS011;920;48.944;9.148;2023-03-19T00:56:21;9.00;;;8.10;;
1839;SDS011;920;48.944;9.148;2023-03-19T00:58:48;9.00;;;8.00;;
1839;SDS011;920;48.944;9.148;2023-03-19T01:01:15;12.47;;;8.83;;
1839;SDS011;920;48.944;9.148;2023-03-19T01:03:43;12.67;;;8.23;;
1839;SDS011;920;48.944;9.148;2023-03-19T01:06:10;12.33;;;9.30;;
1839;SDS011;920;48.944;9.148;2023-03-19T01:08:37;9.57;;;7.80;;
1839;SDS011;920;48.944;9.148;2023-03-19T01:11:06;12.73;;;9.03;;
1839;SDS011;920;48.944;9.148;2023-03-19T01:13:34;9.93;;;8.00;;
1839;SDS011;920;48.944;9.148;2023-03-19T01:16:02;9.10;;;8.20;;
1839;SDS011;920;48.944;9.148;2023-03-19T01:18:28;11.83;;;9.07;;
1839;SDS011;920;48.944;9.148;2023-03-19T01:20:56;10.50;;;8.37;;
1839;SDS011;920;48.944;9.148;2023-03-19T01:23:23;10.40;;;8.23;;
1839;SDS011;920;48.944;9.148;2023-03-19T01:25:50;12.70;;;8.20;;
1839;SDS011;920;48.944;9.148;2023-03-19T01:28:18;12.93;;;8.83;;
1839;SDS011;920;48.944;9.148;2023-03-19T01:30:46;10.60;;;9.13;;
1839;SDS011;920;48.944;9.148;2023-03-19T01:33:42;13.50;;;8.40;;
1839;SDS011;920;48.944;9.148;2023-03-19T01:36:15;11.20;;;8.70;;
1839;SDS011;920;48.944;9.148;2023-03-19T01:39:00;10.10;;;8.63;;
1839;SDS011;920;48.944;9.148;2023-03-19T01:41:27;9.13;;;8.03;;
1839;SDS011;920;48.944;9.148;2023-03-19T01:44:01;11.07;;;8.80;;
1839;SDS011;920;48.944;9.148;2023-03-19T01:46:38;11.37;;;9.30;;
1839;SDS011;920;48.944;9.148;2023-03-19T01:49:25;10.30;;;8.37;;
1839;SDS011;920;48.944;9.148;2023-03-19T01:52:13;9.20;;;8.17;;
1839;SDS011;920;48.944;9.148;2023-03-19T01:55:04;11.03;;;8.30;;
1839;SDS011;920;48.944;9.148;2023-03-19T01:57:49;10.10;;;8.00;;
1839;SDS011;920;48.944;9.148;2023-03-19T02:00:49;8.50;;;7.60;;
1839;SDS011;920;48.944;9.148;2023-03-19T02:03:16;10.70;;;8.17;;
1839;SDS011;920;48.944;9.148;2023-03-19T02:05:59;8.23;;;7.20;;
1839;SDS011;920;48.944;9.148;2023-03-19T02:08:26;10.30;;;7.30;;
1839;SDS011;920;48.944;9.148;2023-03-19T02:10:53;8.47;;;6.20;;
1839;SDS011;920;48.944;9.148;2023-03-19T02:13:20;7.97;;;6.53;;
1839;SDS011;920;48.944;9.148;2023-03-19T02:15:49;8.83;;;7.07;;
1839;SDS011;920;48.944;9.148;2023-03-19T02:18:16;9.07;;;6.80;;
1839;SDS011;920;48.944;9.148;2023-03-19T02:20:47;8.93;;;7.27;;
1839;SDS011;920;48.944;9.148;2023-03-19T02:23:20;10.40;;;7.40;;
1839;SDS011;920;48.944;9.148;2023-03-19T02:26:00;7.63;;;6.30;;
1839;SDS011;920;48.944;9.148;2023-03-19T02:28:29;10.80;;;7.47;;
1839;SDS011;920;48.944;9.148;2023-03-19T02:30:57;7.47;;;6.40;;
1839;SDS011;920;48.944;9.148;2023-03-19T02:33:24;8.40;;;6.53;;
1839;SDS011;920;48.944;9.148;2023-03-19T02:35:51;7.43;;;6.20;;
1839;SDS011;920;48.944;9.148;2023-03-19T02:38:18;8.63;;;6.70;;
1839;SDS011;920;48.944;9.148;2023-03-19T02:40:48;8.13;;;6.67;;
1839;SDS011;920;48.944;9.148;2023-03-19T02:43:21;8.60;;;6.20;;
1839;SDS011;920;48.944;9.148;2023-03-19T02:45:49;5.07;;;3.90;;
1839;SDS011;920;48.944;9.148;2023-03-19T02:48:16;4.47;;;2.93;;
1839;SDS011;920;48.944;9.148;2023-03-19T02:50:43;3.93;;;2.63;;
1839;SDS011;920;48.944;9.148;2023-03-19T02:53:10;3.20;;;2.20;;
1839;SDS011;920;48.944;9.148;2023-03-19T02:55:41;2.70;;;2.00;;
1839;SDS011;920;48.944;9.148;2023-03-19T02:58:07;2.70;;;1.83;;
1839;SDS011;920;48.944;9.148;2023-03-19T03:00:36;3.10;;;2.00;;
1839;SDS011;920;48.944;9.148;2023-03-19T03:03:04;2.20;;;1.80;;
1839;SDS011;920;48.944;9.148;2023-03-19T03:05:32;2.77;;;1.67;;
1839;SDS011;920;48.944;9.148;2023-03-19T03:07:58;2.47;;;1.67;;
1839;SDS011;920;48.944;9.148;2023-03-19T03:10:26;2.40;;;1.70;;
1839;SDS011;920;48.944;9.148;2023-03-19T03:12:52;3.67;;;1.80;;
1839;SDS011;920;48.944;9.148;2023-03-19T03:15:19;2.27;;;1.60;;
1839;SDS011;920;48.944;9.148;2023-03-19T03:17:48;2.57;;;1.77;;
1839;SDS011;920;48.944;9.148;2023-03-19T03:20:15;3.27;;;1.70;;
1839;SDS011;920;48.944;9.148;2023-03-19T03:22:44;3.17;;;2.00;;
1839;SDS011;920;48.944;9.148;2023-03-19T03:25:11;3.37;;;1.70;;
1839;SDS011;920;48.944;9.148;2023-03-19T03:27:39;3.37;;;1.80;;
1839;SDS011;920;48.944;9.148;2023-03-19T03:30:07;1.90;;;1.60;;
1839;SDS011;920;48.944;9.148;2023-03-19T03:32:35;2.80;;;2.03;;
1839;SDS011;920;48.944;9.148;2023-03-19T03:35:03;3.40;;;2.20;;
1839;SDS011;920;48.944;9.148;2023-03-19T03:37:32;4.10;;;2.57;;
1839;SDS011;920;48.944;9.148;2023-03-19T03:39:59;3.70;;;2.83;;
1839;SDS011;920;48.944;9.148;2023-03-19T03:42:30;4.80;;;2.90;;
1839;SDS011;920;48.944;9.148;2023-03-19T03:44:58;6.83;;;3.90;;
1839;SDS011;920;48.944;9.148;2023-03-19T03:47:24;5.37;;;4.77;;
1839;SDS011;920;48.944;9.148;2023-03-19T03:49:51;4.97;;;4.47;;
1839;SDS011;920;48.944;9.148;2023-03-19T03:52:19;6.40;;;4.63;;
1839;SDS011;920;48.944;9.148;2023-03-19T03:54:46;5.57;;;4.30;;
1839;SDS011;920;48.944;9.148;2023-03-19T03:57:13;5.30;;;4.27;;
1839;SDS011;920;48.944;9.148;2023-03-19T03:59:40;6.03;;;3.97;;
1839;SDS011;920;48.944;9.148;2023-03-19T04:02:07;6.43;;;4.50;;
1839;SDS011;920;48.944;9.148;2023-03-19T04:04:34;4.57;;;4.10;;
1839;SDS011;920;48.944;9.148;2023-03-19T04:07:01;6.17;;;4.13;;
1839;SDS011;920;48.944;9.148;2023-03-19T04:09:37;4.10;;;3.40;;
1839;SDS011;920;48.944;9.148;2023-03-19T04:12:06;5.07;;;4.20;;
1839;SDS011;920;48.944;9.148;2023-03-19T04:14:33;4.90;;;4.33;;
1839;SDS011;920;48.944;9.148;2023-03-19T04:17:00;6.07;;;4.30;;
1839;SDS011;920;48.944;9.148;2023-03-19T04:19:27;5.57;;;4.63;;
1839;SDS011;920;48.944;9.148;2023-03-19T04:21:54;8.77;;;4.70;;
1839;SDS011;920;48.944;9.148;2023-03-19T04:24:21;6.13;;;4.20;;
1839;SDS011;920;48.944;9.148;2023-03-19T04:26:50;4.70;;;4.20;;
1839;SDS011;920;48.944;9.148;2023-03-19T04:29:18;4.10;;;3.67;;
1839;SDS011;920;48.944;9.148;2023-03-19T04:31:45;4.37;;;3.63;;
1839;SDS011;920;48.944;9.148;2023-03-19T04:34:12;4.90;;;3.93;;
1839;SDS011;920;48.944;9.148;2023-03-19T04:36:39;5.40;;;4.00;;
1839;SDS011;920;48.944;9.148;2023-03-19T04:39:06;5.30;;;4.30;;
1839;SDS011;920;48.944;9.148;2023-03-19T04:41:33;5.97;;;4.50;;
1839;SDS011;920;48.944;9.148;2023-03-19T04:44:15;5.00;;;4.50;;
1839;SDS011;920;48.944;9.148;2023-03-19T04:46:42;4.67;;;4.17;;
1839;SDS011;920;48.944;9.148;2023-03-19T04:49:10;5.63;;;5.03;;
1839;SDS011;920;48.944;9.148;2023-03-19T04:51:38;5.77;;;3.80;;
1839;SDS011;920;48.944;9.148;2023-03-19T04:54:05;4.90;;;4.30;;
1839;SDS011;920;48.944;9.148;2023-03-19T04:56:32;5.10;;;4.57;;
1839;SDS011;920;48.944;9.148;2023-03-19T04:58:59;6.80;;;4.93;;
1839;SDS011;920;48.944;9.148;2023-03-19T05:01:27;5.13;;;4.63;;
1839;SDS011;920;48.944;9.148;2023-03-19T05:04:04;4.90;;;4.33;;
1839;SDS011;920;48.944;9.148;2023-03-19T05:06:33;5.30;;;4.40;;
1839;SDS011;920;48.944;9.148;2023-03-19T05:09:00;5.30;;;4.70;;
1839;SDS011;920;48.944;9.148;2023-03-19T05:11:27;5.60;;;5.07;;
1839;SDS011;920;48.944;9.148;2023-03-19T05:14:00;8.90;;;7.60;;
1839;SDS011;920;48.944;9.148;2023-03-19T05:16:39;9.17;;;6.43;;
1839;SDS011;920;48.944;9.148;2023-03-19T05:19:06;8.73;;;6.27;;
1839;SDS011;920;48.944;9.148;2023-03-19T05:21:33;6.80;;;5.87;;
1839;SDS011;920;48.944;9.148;2023-03-19T05:24:00;8.40;;;6.13;;
1839;SDS011;920;48.944;9.148;2023-03-19T05:26:32;6.03;;;5.37;;
1839;SDS011;920;48.944;9.148;2023-03-19T05:29:22;6.13;;;4.93;;
1839;SDS011;920;48.944;9.148;2023-03-19T05:32:06;6.30;;;5.50;;
1839;SDS011;920;48.944;9.148;2023-03-19T05:34:33;6.73;;;6.03;;
1839;SDS011;920;48.944;9.148;2023-03-19T05:37:00;7.67;;;6.27;;
1839;SDS011;920;48.944;9.148;2023-03-19T05:39:27;6.83;;;6.10;;
1839;SDS011;920;48.944;9.148;2023-03-19T05:41:59;7.10;;;5.87;;
1839;SDS011;920;48.944;9.148;2023-03-19T05:44:28;8.83;;;6.33;;
1839;SDS011;920;48.944;9.148;2023-03-19T05:47:14;5.87;;;5.33;;
1839;SDS011;920;48.944;9.148;2023-03-19T05:49:46;7.40;;;5.80;;
1839;SDS011;920;48.944;9.148;2023-03-19T05:52:14;7.83;;;5.80;;
1839;SDS011;920;48.944;9.148;2023-03-19T05:54:41;6.10;;;5.00;;
1839;SDS011;920;48.944;9.148;2023-03-19T05:57:17;6.17;;;5.30;;
1839;SDS011;920;48.944;9.148;2023-03-19T05:59:53;5.53;;;4.80;;
1839;SDS011;920;48.944;9.148;2023-03-19T06:02:34;6.90;;;4.67;;
1839;SDS011;920;48.944;9.148;2023-03-19T06:05:30;6.80;;;5.00;;
1839;SDS011;920;48.944;9.148;2023-03-19T06:08:04;8.10;;;5.20;;
1839;SDS011;920;48.944;9.148;2023-03-19T06:10:45;5.70;;;4.53;;
1839;SDS011;920;48.944;9.148;2023-03-19T06:13:12;5.40;;;4.53;;
1839;SDS011;920;48.944;9.148;2023-03-19T06:15:51;4.93;;;4.50;;
1839;SDS011;920;48.944;9.148;2023-03-19T06:18:39;5.50;;;4.60;;
1839;SDS011;920;48.944;9.148;2023-03-19T06:21:09;6.53;;;4.83;;
1839;SDS011;920;48.944;9.148;2023-03-19T06:23:36;5.83;;;5.10;;
1839;SDS011;920;48.944;9.148;2023-03-19T06:26:05;5.97;;;4.90;;
1839;SDS011;920;48.944;9.148;2023-03-19T06:28:40;6.70;;;5.40;;
1839;SDS011;920;48.944;9.148;2023-03-19T06:31:07;8.07;;;5.53;;
1839;SDS011;920;48.944;9.148;2023-03-19T06:33:53;6.73;;;5.80;;
1839;SDS011;920;48.944;9.148;2023-03-19T06:36:24;5.70;;;5.03;;
1839;SDS011;920;48.944;9.148;2023-03-19T06:38:51;7.00;;;5.50;;
1839;SDS011;920;48.944;9.148;2023-03-19T06:41:18;7.93;;;5.27;;
1839;SDS011;920;48.944;9.148;2023-03-19T06:43:46;9.00;;;5.57;;
1839;SDS011;920;48.944;9.148;2023-03-19T06:46:13;6.10;;;5.30;;
1839;SDS011;920;48.944;9.148;2023-03-19T06:48:40;5.37;;;4.87;;
1839;SDS011;920;48.944;9.148;2023-03-19T06:51:08;6.83;;;5.60;;
1839;SDS011;920;48.944;9.148;2023-03-19T06:53:35;7.30;;;5.80;;
1839;SDS011;920;48.944;9.148;2023-03-19T06:56:02;5.83;;;5.33;;
1839;SDS011;920;48.944;9.148;2023-03-19T06:58:28;6.40;;;5.80;;
1839;SDS011;920;48.944;9.148;2023-03-19T07:00:57;6.33;;;5.33;;
1839;SDS011;920;48.944;9.148;2023-03-19T07:03:24;6.63;;;5.10;;
1839;SDS011;920;48.944;9.148;2023-03-19T07:05:51;6.77;;;5.20;;
1839;SDS011;920;48.944;9.148;2023-03-19T07:08:19;5.93;;;5.30;;
1839;SDS011;920;48.944;9.148;2023-03-19T07:10:46;7.13;;;5.50;;
1839;SDS011;920;48.944;9.148;2023-03-19T07:13:13;6.13;;;5.23;;
1839;SDS011;920;48.944;9.148;2023-03-19T07:15:40;8.43;;;6.07;;
1839;SDS011;920;48.944;9.148;2023-03-19T07:18:07;6.87;;;6.20;;
1839;SDS011;920;48.944;9.148;2023-03-19T07:20:34;6.30;;;5.40;;
1839;SDS011;920;48.944;9.148;2023-03-19T07:23:01;7.70;;;6.00;;
1839;SDS011;920;48.944;9.148;2023-03-19T07:25:29;7.40;;;5.30;;
1839;SDS011;920;48.944;9.148;2023-03-19T07:27:56;7.43;;;5.70;;
1839;SDS011;920;48.944;9.148;2023-03-19T07:30:22;6.37;;;5.13;;
1839;SDS011;920;48.944;9.148;2023-03-19T07:32:49;7.50;;;6.03;;
1839;SDS011;920;48.944;9.148;2023-03-19T07:35:16;7.20;;;6.27;;
1839;SDS011;920;48.944;9.148;2023-03-19T07:37:43;6.40;;;5.80;;
1839;SDS011;920;48.944;9.148;2023-03-19T07:40:10;6.73;;;5.97;;
1839;SDS011;920;48.944;9.148;2023-03-19T07:42:38;6.10;;;5.50;;
1839;SDS011;920;48.944;9.148;2023-03-19T07:45:06;6.83;;;5.80;;
1839;SDS011;920;48.944;9.148;2023-03-19T07:47:33;7.73;;;5.87;;
1839;SDS011;920;48.944;9.148;2023-03-19T07:50:00;7.03;;;5.80;;
1839;SDS011;920;48.944;9.148;2023-03-19T07:52:28;6.00;;;5.40;;
1839;SDS011;920;48.944;9.148;2023-03-19T07:54:54;7.10;;;5.70;;
1839;SDS011;920;48.944;9.148;2023-03-19T07:57:21;6.33;;;5.40;;
1839;SDS011;920;48.944;9.148;2023-03-19T07:59:50;6.73;;;5.00;;
1839;SDS011;920;48.944;9.148;2023-03-19T08:02:17;6.40;;;5.00;;
1839;SDS011;920;48.944;9.148;2023-03-19T08:04:44;6.70;;;5.20;;
1839;SDS011;920;48.944;9.148;2023-03-19T08:07:12;6.00;;;5.40;;
1839;SDS011;920;48.944;9.148;2023-03-19T08:09:38;5.90;;;5.20;;
1839;SDS011;920;48.944;9.148;2023-03-19T08:12:06;6.80;;;5.60;;
1839;SDS011;920;48.944;9.148;2023-03-19T08:14:33;6.53;;;5.80;;
1839;SDS011;920;48.944;9.148;2023-03-19T08:17:01;5.70;;;5.20;;
1839;SDS011;920;48.944;9.148;2023-03-19T08:19:28;6.30;;;5.10;;
1839;SDS011;920;48.944;9.148;2023-03-19T08:21:54;7.70;;;5.37;;
1839;SDS011;920;48.944;9.148;2023-03-19T08:24:21;6.47;;;4.90;;
1839;SDS011;920;48.944;9.148;2023-03-19T08:26:48;5.83;;;4.80;;
1839;SDS011;920;48.944;9.148;2023-03-19T08:29:15;6.13;;;5.53;;
1839;SDS011;920;48.944;9.148;2023-03-19T08:31:42;7.17;;;5.70;;
1839;SDS011;920;48.944;9.148;2023-03-19T08:34:10;6.73;;;5.17;;
1839;SDS011;920;48.944;9.148;2023-03-19T08:36:36;8.73;;;5.10;;
1839;SDS011;920;48.944;9.148;2023-03-19T08:39:05;6.43;;;5.60;;
1839;SDS011;920;48.944;9.148;2023-03-19T08:41:32;7.80;;;6.10;;
1839;SDS011;920;48.944;9.148;2023-03-19T08:43:59;6.30;;;4.97;;
1839;SDS011;920;48.944;9.148;2023-03-19T08:46:25;8.13;;;5.90;;
1839;SDS011;920;48.944;9.148;2023-03-19T08:48:53;5.80;;;5.00;;
1839;SDS011;920;48.944;9.148;2023-03-19T08:51:21;5.47;;;4.67;;
1839;SDS011;920;48.944;9.148;2023-03-19T08:53:52;5.67;;;4.80;;
1839;SDS011;920;48.944;9.148;2023-03-19T08:56:19;8.03;;;4.80;;
1839;SDS011;920;48.944;9.148;2023-03-19T08:58:46;5.63;;;5.10;;
1839;SDS011;920;48.944;9.148;2023-03-19T09:01:14;6.00;;;4.50;;
1839;SDS011;920;48.944;9.148;2023-03-19T09:03:42;5.00;;;3.97;;
1839;SDS011;920;48.944;9.148;2023-03-19T09:06:09;6.13;;;4.60;;
1839;SDS011;920;48.944;9.148;2023-03-19T09:08:39;5.50;;;4.03;;
1839;SDS011;920;48.944;9.148;2023-03-19T09:11:07;5.80;;;3.93;;
1839;SDS011;920;48.944;9.148;2023-03-19T09:13:34;5.40;;;4.00;;
1839;SDS011;920;48.944;9.148;2023-03-19T09:16:01;6.23;;;4.37;;
1839;SDS011;920;48.944;9.148;2023-03-19T09:18:28;6.60;;;5.17;;
1839;SDS011;920;48.944;9.148;2023-03-19T09:20:55;7.03;;;5.70;;
1839;SDS011;920;48.944;9.148;2023-03-19T09:23:22;6.60;;;5.60;;
1839;SDS011;920;48.944;9.148;2023-03-19T09:25:50;5.17;;;4.30;;
1839;SDS011;920;48.944;9.148;2023-03-19T09:28:17;8.43;;;4.27;;
1839;SDS011;920;48.944;9.148;2023-03-19T09:30:45;4.60;;;3.53;;
1839;SDS011;920;48.944;9.148;2023-03-19T09:33:12;5.30;;;3.33;;
1839;SDS011;920;48.944;9.148;2023-03-19T09:35:40;4.27;;;3.70;;
1839;SDS011;920;48.944;9.148;2023-03-19T09:38:07;7.00;;;6.30;;
1839;SDS011;920;48.944;9.148;2023-03-19T09:40:34;4.67;;;3.73;;
1839;SDS011;920;48.944;9.148;2023-03-19T09:43:08;3.53;;;3.20;;
1839;SDS011;920;48.944;9.148;2023-03-19T09:45:45;5.80;;;3.10;;
1839;SDS011;920;48.944;9.148;2023-03-19T09:48:13;4.03;;;2.73;;
1839;SDS011;920;48.944;9.148;2023-03-19T09:50:43;3.63;;;2.53;;
1839;SDS011;920;48.944;9.148;2023-03-19T09:53:11;3.97;;;3.03;;
1839;SDS011;920;48.944;9.148;2023-03-19T09:55:44;4.30;;;2.40;;
1839;SDS011;920;48.944;9.148;2023-03-19T09:58:16;3.40;;;2.30;;
1839;SDS011;920;48.944;9.148;2023-03-19T10:00:45;4.37;;;2.57;;
1839;SDS011;920;48.944;9.148;2023-03-19T10:03:19;2.97;;;2.40;;
1839;SDS011;920;48.944;9.148;2023-03-19T10:05:55;2.87;;;2.10;;
1839;SDS011;920;48.944;9.148;2023-03-19T10:08:30;4.00;;;2.43;;
1839;SDS011;920;48.944;9.148;2023-03-19T10:11:12;3.87;;;2.00;;
1839;SDS011;920;48.944;9.148;2023-03-19T10:13:50;2.90;;;2.17;;
1839;SDS011;920;48.944;9.148;2023-03-19T10:16:22;3.20;;;2.40;;
1839;SDS011;920;48.944;9.148;2023-03-19T10:18:51;3.00;;;2.57;;
1839;SDS011;920;48.944;9.148;2023-03-19T10:21:21;3.23;;;1.90;;
1839;SDS011;920;48.944;9.148;2023-03-19T10:23:52;3.37;;;2.50;;
1839;SDS011;920;48.944;9.148;2023-03-19T10:26:21;3.50;;;2.20;;
1839;SDS011;920;48.944;9.148;2023-03-19T10:28:56;3.30;;;2.47;;
1839;SDS011;920;48.944;9.148;2023-03-19T10:31:35;3.90;;;2.47;;
1839;SDS011;920;48.944;9.148;2023-03-19T10:34:21;3.80;;;2.47;;
1839;SDS011;920;48.944;9.148;2023-03-19T10:36:56;4.50;;;2.27;;
1839;SDS011;920;48.944;9.148;2023-03-19T10:39:24;3.07;;;2.00;;
1839;SDS011;920;48.944;9.148;2023-03-19T10:41:53;2.97;;;2.07;;
1839;SDS011;920;48.944;9.148;2023-03-19T10:44:29;2.60;;;1.93;;
1839;SDS011;920;48.944;9.148;2023-03-19T10:46:57;8.00;;;2.20;;
1839;SDS011;920;48.944;9.148;2023-03-19T10:49:24;2.40;;;1.80;;
1839;SDS011;920;48.944;9.148;2023-03-19T10:51:52;2.57;;;1.90;;
1839;SDS011;920;48.944;9.148;2023-03-19T10:54:22;4.27;;;2.17;;
1839;SDS011;920;48.944;9.148;2023-03-19T10:56:50;3.10;;;1.70;;
1839;SDS011;920;48.944;9.148;2023-03-19T10:59:21;3.23;;;1.93;;
1839;SDS011;920;48.944;9.148;2023-03-19T11:01:56;3.13;;;1.87;;
1839;SDS011;920;48.944;9.148;2023-03-19T11:04:24;2.93;;;1.90;;
1839;SDS011;920;48.944;9.148;2023-03-19T11:06:52;3.20;;;1.80;;
1839;SDS011;920;48.944;9.148;2023-03-19T11:09:21;2.70;;;1.87;;
1839;SDS011;920;48.944;9.148;2023-03-19T11:11:52;3.37;;;1.90;;
1839;SDS011;920;48.944;9.148;2023-03-19T11:14:23;4.87;;;2.43;;
1839;SDS011;920;48.944;9.148;2023-03-19T11:16:54;2.83;;;2.20;;
1839;SDS011;920;48.944;9.148;2023-03-19T11:19:23;3.47;;;2.17;;
1839;SDS011;920;48.944;9.148;2023-03-19T11:21:52;3.70;;;1.83;;
1839;SDS011;920;48.944;9.148;2023-03-19T11:24:26;3.73;;;2.10;;
1839;SDS011;920;48.944;9.148;2023-03-19T11:26:56;3.27;;;2.03;;
1839;SDS011;920;48.944;9.148;2023-03-19T11:29:25;3.63;;;2.20;;
1839;SDS011;920;48.944;9.148;2023-03-19T11:31:53;2.53;;;1.90;;
1839;SDS011;920;48.944;9.148;2023-03-19T11:34:30;2.90;;;2.30;;
1839;SDS011;920;48.944;9.148;2023-03-19T11:37:03;3.13;;;2.00;;
1839;SDS011;920;48.944;9.148;2023-03-19T11:39:36;3.20;;;2.23;;
1839;SDS011;920;48.944;9.148;2023-03-19T11:42:21;3.13;;;2.27;;
1839;SDS011;920;48.944;9.148;2023-03-19T11:44:58;4.23;;;2.33;;
1839;SDS011;920;48.944;9.148;2023-03-19T11:47:32;3.57;;;2.50;;
1839;SDS011;920;48.944;9.148;2023-03-19T11:50:07;3.43;;;2.20;;
1839;SDS011;920;48.944;9.148;2023-03-19T11:52:47;3.37;;;2.40;;
1839;SDS011;920;48.944;9.148;2023-03-19T11:55:20;5.00;;;2.20;;
1839;SDS011;920;48.944;9.148;2023-03-19T11:57:54;2.73;;;2.17;;
1839;SDS011;920;48.944;9.148;2023-03-19T12:00:28;3.50;;;2.30;;
1839;SDS011;920;48.944;9.148;2023-03-19T12:03:07;3.20;;;2.10;;
1839;SDS011;920;48.944;9.148;2023-03-19T12:05:47;4.00;;;2.10;;
1839;SDS011;920;48.944;9.148;2023-03-19T12:08:18;3.40;;;2.10;;
1839;SDS011;920;48.944;9.148;2023-03-19T12:10:56;3.53;;;2.20;;
1839;SDS011;920;48.944;9.148;2023-03-19T12:13:41;3.73;;;2.20;;
1839;SDS011;920;48.944;9.148;2023-03-19T12:16:14;2.90;;;2.40;;
1839;SDS011;920;48.944;9.148;2023-03-19T12:21:48;4.00;;;2.07;;
1839;SDS011;920;48.944;9.148;2023-03-19T12:24:25;3.60;;;2.33;;
1839;SDS011;920;48.944;9.148;2023-03-19T12:26:57;3.47;;;2.20;;
1839;SDS011;920;48.944;9.148;2023-03-19T12:29:31;4.80;;;2.50;;
1839;SDS011;920;48.944;9.148;2023-03-19T12:32:14;3.17;;;2.20;;
1839;SDS011;920;48.944;9.148;2023-03-19T12:34:45;3.60;;;2.37;;
1839;SDS011;920;48.944;9.148;2023-03-19T12:37:17;2.50;;;2.10;;
1839;SDS011;920;48.944;9.148;2023-03-19T12:39:48;2.80;;;2.07;;
1839;SDS011;920;48.944;9.148;2023-03-19T12:42:20;4.60;;;2.57;;
1839;SDS011;920;48.944;9.148;2023-03-19T12:44:49;4.53;;;2.33;;
1839;SDS011;920;48.944;9.148;2023-03-19T12:47:19;3.60;;;2.00;;
1839;SDS011;920;48.944;9.148;2023-03-19T12:49:49;3.37;;;2.10;;
1839;SDS011;920;48.944;9.148;2023-03-19T12:52:20;3.77;;;2.23;;
1839;SDS011;920;48.944;9.148;2023-03-19T12:54:49;4.90;;;2.00;;
1839;SDS011;920;48.944;9.148;2023-03-19T12:57:23;4.60;;;2.33;;
1839;SDS011;920;48.944;9.148;2023-03-19T12:59:57;2.93;;;1.80;;
1839;SDS011;920;48.944;9.148;2023-03-19T13:02:27;3.00;;;1.60;;
1839;SDS011;920;48.944;9.148;2023-03-19T13:04:57;3.90;;;1.90;;
1839;SDS011;920;48.944;9.148;2023-03-19T13:07:29;2.33;;;1.63;;
1839;SDS011;920;48.944;9.148;2023-03-19T13:09:59;3.00;;;1.73;;
1839;SDS011;920;48.944;9.148;2023-03-19T13:12:29;7.23;;;2.00;;
1839;SDS011;920;48.944;9.148;2023-03-19T13:14:58;2.57;;;2.00;;
1839;SDS011;920;48.944;9.148;2023-03-19T13:17:30;4.00;;;2.40;;
1839;SDS011;920;48.944;9.148;2023-03-19T13:20:03;6.20;;;1.87;;
1839;SDS011;920;48.944;9.148;2023-03-19T13:22:36;3.03;;;2.03;;
1839;SDS011;920;48.944;9.148;2023-03-19T13:25:05;3.37;;;2.33;;
1839;SDS011;920;48.944;9.148;2023-03-19T13:27:35;3.20;;;2.23;;
1839;SDS011;920;48.944;9.148;2023-03-19T13:30:06;3.70;;;2.30;;
1839;SDS011;920;48.944;9.148;2023-03-19T13:32:43;3.83;;;2.20;;
1839;SDS011;920;48.944;9.148;2023-03-19T13:38:02;3.03;;;2.00;;
1839;SDS011;920;48.944;9.148;2023-03-19T13:40:37;2.40;;;1.80;;
1839;SDS011;920;48.944;9.148;2023-03-19T13:49:08;2.53;;;1.63;;
1839;SDS011;920;48.944;9.148;2023-03-19T13:51:54;2.70;;;1.80;;
1839;SDS011;920;48.944;9.148;2023-03-19T13:54:35;2.30;;;1.40;;
1839;SDS011;920;48.944;9.148;2023-03-19T13:57:16;2.37;;;1.50;;
1839;SDS011;920;48.944;9.148;2023-03-19T13:59:47;2.50;;;1.60;;
1839;SDS011;920;48.944;9.148;2023-03-19T14:05:15;3.33;;;1.77;;
1839;SDS011;920;48.944;9.148;2023-03-19T14:07:44;2.57;;;1.70;;
1839;SDS011;920;48.944;9.148;2023-03-19T14:10:17;2.87;;;1.87;;
1839;SDS011;920;48.944;9.148;2023-03-19T14:12:49;2.67;;;1.80;;
1839;SDS011;920;48.944;9.148;2023-03-19T14:15:18;3.00;;;1.83;;
1839;SDS011;920;48.944;9.148;2023-03-19T14:17:52;2.57;;;1.70;;
1839;SDS011;920;48.944;9.148;2023-03-19T14:20:22;5.10;;;1.80;;
1839;SDS011;920;48.944;9.148;2023-03-19T14:22:54;2.87;;;2.03;;
1839;SDS011;920;48.944;9.148;2023-03-19T14:25:50;4.00;;;2.30;;
1839;SDS011;920;48.944;9.148;2023-03-19T14:28:22;2.90;;;2.20;;
1839;SDS011;920;48.944;9.148;2023-03-19T14:30:51;3.50;;;2.10;;
1839;SDS011;920;48.944;9.148;2023-03-19T14:33:19;8.30;;;2.57;;
1839;SDS011;920;48.944;9.148;2023-03-19T14:35:48;4.50;;;2.53;;
1839;SDS011;920;48.944;9.148;2023-03-19T14:38:21;3.00;;;2.03;;
1839;SDS011;920;48.944;9.148;2023-03-19T14:40:55;6.77;;;2.20;;
1839;SDS011;920;48.944;9.148;2023-03-19T14:43:25;5.23;;;2.20;;
1839;SDS011;920;48.944;9.148;2023-03-19T14:46:04;3.40;;;2.10;;
1839;SDS011;920;48.944;9.148;2023-03-19T14:51:35;2.40;;;1.80;;
1839;SDS011;920;48.944;9.148;2023-03-19T14:54:15;2.30;;;1.40;;
1839;SDS011;920;48.944;9.148;2023-03-19T14:56:47;2.53;;;1.90;;
1839;SDS011;920;48.944;9.148;2023-03-19T14:59:14;3.27;;;1.80;;
1839;SDS011;920;48.944;9.148;2023-03-19T15:01:43;2.77;;;2.00;;
1839;SDS011;920;48.944;9.148;2023-03-19T15:04:14;3.07;;;2.47;;
1839;SDS011;920;48.944;9.148;2023-03-19T15:06:42;4.57;;;2.40;;
1839;SDS011;920;48.944;9.148;2023-03-19T15:09:14;4.83;;;2.10;;
1839;SDS011;920;48.944;9.148;2023-03-19T15:11:55;2.90;;;2.20;;
1839;SDS011;920;48.944;9.148;2023-03-19T15:14:41;2.70;;;1.90;;
1839;SDS011;920;48.944;9.148;2023-03-19T15:17:16;2.60;;;1.90;;
1839;SDS011;920;48.944;9.148;2023-03-19T15:19:46;4.27;;;2.50;;
1839;SDS011;920;48.944;9.148;2023-03-19T15:22:14;3.30;;;2.50;;
1839;SDS011;920;48.944;9.148;2023-03-19T15:24:44;2.70;;;2.10;;
1839;SDS011;920;48.944;9.148;2023-03-19T15:27:21;3.10;;;2.00;;
1839;SDS011;920;48.944;9.148;2023-03-19T15:29:48;2.80;;;2.00;;
1839;SDS011;920;48.944;9.148;2023-03-19T15:32:31;3.70;;;2.00;;
1839;SDS011;920;48.944;9.148;2023-03-19T15:34:59;3.00;;;2.37;;
1839;SDS011;920;48.944;9.148;2023-03-19T15:37:26;3.70;;;2.30;;
1839;SDS011;920;48.944;9.148;2023-03-19T15:39:54;3.63;;;2.10;;
1839;SDS011;920;48.944;9.148;2023-03-19T15:42:23;2.90;;;2.37;;
1839;SDS011;920;48.944;9.148;2023-03-19T15:44:52;3.30;;;2.77;;
1839;SDS011;920;48.944;9.148;2023-03-19T15:47:21;2.73;;;2.27;;
1839;SDS011;920;48.944;9.148;2023-03-19T15:49:51;4.50;;;2.80;;
1839;SDS011;920;48.944;9.148;2023-03-19T15:52:18;3.93;;;2.47;;
1839;SDS011;920;48.944;9.148;2023-03-19T15:54:45;2.63;;;2.20;;
1839;SDS011;920;48.944;9.148;2023-03-19T15:57:12;2.87;;;1.93;;
1839;SDS011;920;48.944;9.148;2023-03-19T15:59:42;2.37;;;1.50;;
1839;SDS011;920;48.944;9.148;2023-03-19T16:02:12;2.73;;;1.50;;
1839;SDS011;920;48.944;9.148;2023-03-19T16:04:43;3.40;;;1.63;;
1839;SDS011;920;48.944;9.148;2023-03-19T16:07:19;2.60;;;1.67;;
1839;SDS011;920;48.944;9.148;2023-03-19T16:09:48;2.40;;;1.70;;